Time;durP1;ratioP1;P1;durP2;ratioP2;P2;SDS_P1;SDS_P2;PMS_P1;PMS_P2;Temp;Humidity;BMP_temperature;BMP_pressure;BME280_temperature;BME280_humidity;BME280_pressure;Samples;Min_cycle;Max_cycle;Signal;HPM_P1;HPM_P2
2023/05/13 00:00:40;;;;;;;;;;;20.50;42.10;;;;;;5089276;28;19920;-58
2023/05/13 00:03:07;;;;;;;;;;;20.50;42.10;;;;;;5075697;28;19920;-58
2023/05/13 00:05:33;;;;;;;;;;;20.50;42.10;;;;;;5074617;28;19920;-59
2023/05/13 00:08:05;;;;;;;;;;;20.50;42.10;;;;;;5069412;28;19927;-57
2023/05/13 00:10:32;;;;;;;;;;;20.50;42.00;;;;;;5085234;28;20324;-59
2023/05/13 00:12:59;;;;;;;;;;;20.50;42.00;;;;;;5076434;28;19976;-59
2023/05/13 00:15:26;;;;;;;;;;;20.50;42.00;;;;;;5078168;28;19920;-58
2023/05/13 00:17:54;;;;;;;;;;;20.50;42.10;;;;;;5068114;28;19977;-57
2023/05/13 00:20:20;;;;;;;;;;;20.50;42.00;;;;;;5093121;28;20386;-57
2023/05/13 00:22:47;;;;;;;;;;;20.40;41.90;;;;;;5074013;28;19920;-57
2023/05/13 00:25:14;;;;;;;;;;;20.50;42.00;;;;;;5091170;28;19973;-58
2023/05/13 00:27:41;;;;;;;;;;;20.40;41.90;;;;;;5091911;28;19978;-58
2023/05/13 00:30:08;;;;;;;;;;;20.40;41.90;;;;;;5074035;28;19969;-58
2023/05/13 00:32:35;;;;;;;;;;;20.40;41.90;;;;;;5089483;28;19942;-58
2023/05/13 00:35:03;;;;;;;;;;;20.40;41.90;;;;;;5074030;28;20243;-59
2023/05/13 00:37:30;;;;;;;;;;;20.40;41.80;;;;;;5092067;28;19927;-59
2023/05/13 00:39:56;;;;;;;;;;;20.40;41.80;;;;;;5075558;28;19919;-59
2023/05/13 00:42:23;;;;;;;;;;;20.40;41.80;;;;;;5085951;28;19921;-57
2023/05/13 00:44:51;;;;;;;;;;;20.40;41.80;;;;;;5085603;28;19944;-58
2023/05/13 00:47:17;;;;;;;;;;;20.40;41.80;;;;;;5085719;28;19967;-58
2023/05/13 00:49:44;;;;;;;;;;;20.40;41.70;;;;;;5066728;28;19947;-58
2023/05/13 00:52:12;;;;;;;;;;;20.40;41.70;;;;;;5061879;28;19970;-58
2023/05/13 00:54:39;;;;;;;;;;;20.40;41.70;;;;;;5071820;28;19993;-58
2023/05/13 00:57:06;;;;;;;;;;;20.40;41.80;;;;;;5072282;28;19974;-58
2023/05/13 00:59:33;;;;;;;;;;;20.40;41.70;;;;;;5079641;28;19927;-58
2023/05/13 01:02:00;;;;;;;;;;;20.40;41.70;;;;;;5061523;28;19920;-58
2023/05/13 01:04:29;;;;;;;;;;;20.40;41.70;;;;;;5083692;28;20304;-58
2023/05/13 01:06:57;;;;;;;;;;;20.40;41.60;;;;;;5068586;28;19955;-58
2023/05/13 01:09:29;;;;;;;;;;;20.40;41.60;;;;;;5086708;28;19924;-57
2023/05/13 01:11:55;;;;;;;;;;;20.40;41.60;;;;;;5081010;28;19965;-58
2023/05/13 01:14:33;;;;;;;;;;;20.40;41.60;;;;;;5079270;28;19930;-58
2023/05/13 01:17:01;;;;;;;;;;;20.40;41.60;;;;;;5088257;28;19923;-57
2023/05/13 01:19:32;;;;;;;;;;;20.40;41.60;;;;;;5068421;28;19928;-57
2023/05/13 01:22:01;;;;;;;;;;;20.40;41.60;;;;;;5072002;28;20358;-58
2023/05/13 01:24:27;;;;;;;;;;;20.30;41.50;;;;;;5087619;28;19950;-58
2023/05/13 01:26:54;;;;;;;;;;;20.30;41.50;;;;;;5091550;28;19920;-57
2023/05/13 01:29:21;;;;;;;;;;;20.30;41.50;;;;;;5089184;28;20300;-57
2023/05/13 01:31:47;;;;;;;;;;;20.30;41.50;;;;;;5071128;28;19920;-57
2023/05/13 01:34:14;;;;;;;;;;;20.30;41.50;;;;;;5071379;28;19924;-58
2023/05/13 01:36:41;;;;;;;;;;;20.30;41.60;;;;;;5088533;28;19927;-57
2023/05/13 01:39:09;;;;;;;;;;;20.30;41.60;;;;;;5085408;28;19969;-58
2023/05/13 01:41:36;;;;;;;;;;;20.30;41.60;;;;;;5071296;28;19920;-58
2023/05/13 01:44:03;;;;;;;;;;;20.30;41.60;;;;;;5084767;28;19920;-58
2023/05/13 01:46:29;;;;;;;;;;;20.30;41.70;;;;;;5071215;28;19966;-57
2023/05/13 01:48:56;;;;;;;;;;;20.30;41.70;;;;;;5072015;28;19985;-58
2023/05/13 01:51:23;;;;;;;;;;;20.30;41.70;;;;;;5084054;28;19924;-58
2023/05/13 01:53:50;;;;;;;;;;;20.30;41.70;;;;;;5086072;28;19953;-58
2023/05/13 01:56:18;;;;;;;;;;;20.30;41.70;;;;;;5072939;28;20313;-57
2023/05/13 01:58:44;;;;;;;;;;;20.30;41.70;;;;;;5068895;28;19924;-58
2023/05/13 02:01:11;;;;;;;;;;;20.30;41.70;;;;;;5071439;28;19960;-57
2023/05/13 02:03:38;;;;;;;;;;;20.30;41.70;;;;;;5072121;28;19920;-57
2023/05/13 02:06:05;;;;;;;;;;;20.30;41.70;;;;;;5086445;28;19920;-58
2023/05/13 02:08:32;;;;;;;;;;;20.30;41.70;;;;;;5081633;28;19978;-58
2023/05/13 02:10:58;;;;;;;;;;;20.30;41.70;;;;;;5080520;28;19920;-58
2023/05/13 02:13:26;;;;;;;;;;;20.30;41.70;;;;;;5085331;28;19920;-58
2023/05/13 02:15:54;;;;;;;;;;;20.30;41.70;;;;;;5060642;28;19920;-58
2023/05/13 02:18:21;;;;;;;;;;;20.30;41.80;;;;;;5086113;28;19920;-59
2023/05/13 02:20:47;;;;;;;;;;;20.30;41.70;;;;;;5086602;28;20036;-59
2023/05/13 02:23:16;;;;;;;;;;;20.30;41.70;;;;;;5067138;28;19970;-59
2023/05/13 02:25:43;;;;;;;;;;;20.30;41.80;;;;;;5069277;28;19920;-58
2023/05/13 02:28:09;;;;;;;;;;;20.30;41.80;;;;;;5069548;28;19924;-58
2023/05/13 02:30:38;;;;;;;;;;;20.30;41.80;;;;;;5068468;28;20015;-58
2023/05/13 02:33:06;;;;;;;;;;;20.30;41.80;;;;;;5069470;28;19921;-58
2023/05/13 02:35:33;;;;;;;;;;;20.30;41.80;;;;;;5076625;28;19928;-57
2023/05/13 02:37:59;;;;;;;;;;;20.30;41.80;;;;;;5077273;28;19942;-57
2023/05/13 02:40:26;;;;;;;;;;;20.30;41.80;;;;;;5060868;28;19932;-58
2023/05/13 02:42:53;;;;;;;;;;;20.30;41.80;;;;;;5061768;28;19920;-58
2023/05/13 02:45:20;;;;;;;;;;;20.30;41.80;;;;;;5082292;28;19966;-57
2023/05/13 02:47:48;;;;;;;;;;;20.30;41.80;;;;;;5067779;28;19927;-59
2023/05/13 02:50:15;;;;;;;;;;;20.30;41.80;;;;;;5086823;28;19978;-58
2023/05/13 02:52:42;;;;;;;;;;;20.30;41.80;;;;;;5088437;28;19924;-58
2023/05/13 02:55:09;;;;;;;;;;;20.30;41.80;;;;;;5071303;28;19969;-58
2023/05/13 02:57:36;;;;;;;;;;;20.30;41.80;;;;;;5071076;28;20259;-59
2023/05/13 03:00:03;;;;;;;;;;;20.30;41.80;;;;;;5067232;28;20023;-58
2023/05/13 03:02:30;;;;;;;;;;;20.30;41.80;;;;;;5086275;28;19920;-58
2023/05/13 03:04:58;;;;;;;;;;;20.30;41.80;;;;;;5079865;28;19984;-58
2023/05/13 03:07:25;;;;;;;;;;;20.30;41.90;;;;;;5067583;28;19993;-58
2023/05/13 03:09:51;;;;;;;;;;;20.30;41.90;;;;;;5081046;28;19983;-58
2023/05/13 03:12:18;;;;;;;;;;;20.30;41.90;;;;;;5083560;28;19978;-58
2023/05/13 03:14:45;;;;;;;;;;;20.30;41.80;;;;;;5066145;28;19965;-58
2023/05/13 03:17:12;;;;;;;;;;;20.30;41.90;;;;;;5071198;28;19974;-59
2023/05/13 03:19:39;;;;;;;;;;;20.30;41.90;;;;;;5089450;28;20408;-58
2023/05/13 03:22:07;;;;;;;;;;;20.30;41.90;;;;;;5072153;28;19920;-58
2023/05/13 03:24:34;;;;;;;;;;;20.30;41.80;;;;;;5092584;28;20010;-58
2023/05/13 03:27:01;;;;;;;;;;;20.30;41.90;;;;;;5092156;28;19932;-58
2023/05/13 03:29:27;;;;;;;;;;;20.30;41.90;;;;;;5076059;28;19928;-58
2023/05/13 03:31:54;;;;;;;;;;;20.30;41.90;;;;;;5084434;28;19924;-58
2023/05/13 03:34:21;;;;;;;;;;;20.30;41.90;;;;;;5068426;28;19924;-58
2023/05/13 03:36:47;;;;;;;;;;;20.20;41.80;;;;;;5087307;28;19933;-59
2023/05/13 03:39:16;;;;;;;;;;;20.20;41.80;;;;;;5085276;28;20623;-58
2023/05/13 03:41:44;;;;;;;;;;;20.30;41.90;;;;;;5082531;28;20034;-58
2023/05/13 03:44:11;;;;;;;;;;;20.30;41.90;;;;;;5066332;28;19924;-58
2023/05/13 03:46:38;;;;;;;;;;;20.20;41.80;;;;;;5088158;28;19924;-58
2023/05/13 03:49:04;;;;;;;;;;;20.20;41.80;;;;;;5088963;28;19920;-58
2023/05/13 03:51:33;;;;;;;;;;;20.20;41.90;;;;;;5090400;28;19996;-59
2023/05/13 03:53:59;;;;;;;;;;;20.20;41.90;;;;;;5087249;28;19932;-56
2023/05/13 03:56:27;;;;;;;;;;;20.20;41.90;;;;;;5085757;28;19921;-56
2023/05/13 03:58:55;;;;;;;;;;;20.20;41.90;;;;;;5082092;28;20386;-58
2023/05/13 04:01:22;;;;;;;;;;;20.20;41.90;;;;;;5066158;28;19924;-58
2023/05/13 04:03:49;;;;;;;;;;;20.20;41.90;;;;;;5063924;28;19920;-58
2023/05/13 04:06:16;;;;;;;;;;;20.20;41.90;;;;;;5089260;28;20255;-58
2023/05/13 04:08:43;;;;;;;;;;;20.20;41.90;;;;;;5084964;28;19949;-58
2023/05/13 04:11:10;;;;;;;;;;;20.20;41.90;;;;;;5065909;28;19920;-58
2023/05/13 04:13:38;;;;;;;;;;;20.20;41.90;;;;;;5079525;28;19924;-58
2023/05/13 04:16:05;;;;;;;;;;;20.20;41.90;;;;;;5087409;28;19942;-58
2023/05/13 04:18:33;;;;;;;;;;;20.20;41.90;;;;;;5087308;28;20038;-58
2023/05/13 04:21:00;;;;;;;;;;;20.20;42.50;;;;;;5088541;28;19973;-58
2023/05/13 04:23:26;;;;;;;;;;;20.20;41.90;;;;;;5086573;28;19920;-58
2023/05/13 04:25:53;;;;;;;;;;;20.20;41.90;;;;;;5072417;28;19933;-58
2023/05/13 04:28:20;;;;;;;;;;;20.20;41.90;;;;;;5084718;28;19920;-58
2023/05/13 04:30:48;;;;;;;;;;;20.20;41.90;;;;;;5068177;28;19924;-58
2023/05/13 04:33:15;;;;;;;;;;;20.20;42.00;;;;;;5087935;28;19920;-58
2023/05/13 04:35:42;;;;;;;;;;;20.20;42.00;;;;;;5065227;28;20279;-58
2023/05/13 04:38:09;;;;;;;;;;;20.20;42.00;;;;;;5081715;28;19920;-58
2023/05/13 04:40:36;;;;;;;;;;;20.20;42.00;;;;;;5086149;28;19920;-58
2023/05/13 04:43:02;;;;;;;;;;;20.20;42.00;;;;;;5088528;28;19920;-58
2023/05/13 04:45:30;;;;;;;;;;;20.20;42.00;;;;;;5087907;28;19927;-58
2023/05/13 04:47:58;;;;;;;;;;;20.20;42.00;;;;;;5080595;28;19920;-58
2023/05/13 04:50:25;;;;;;;;;;;20.20;42.00;;;;;;5072850;28;19920;-58
2023/05/13 04:52:53;;;;;;;;;;;20.20;42.00;;;;;;5066254;28;19920;-58
2023/05/13 04:55:20;;;;;;;;;;;20.20;42.00;;;;;;5064040;28;19924;-58
2023/05/13 04:57:47;;;;;;;;;;;20.10;41.90;;;;;;5077930;28;19924;-58
2023/05/13 05:00:14;;;;;;;;;;;20.20;42.00;;;;;;5084448;28;19924;-58
2023/05/13 05:02:41;;;;;;;;;;;20.20;42.00;;;;;;5080881;28;19928;-58
2023/05/13 05:05:09;;;;;;;;;;;20.10;42.00;;;;;;5071926;28;19920;-58
2023/05/13 05:07:39;;;;;;;;;;;20.20;42.10;;;;;;5084251;28;19974;-58
2023/05/13 05:10:06;;;;;;;;;;;20.10;41.90;;;;;;5079550;28;19921;-58
2023/05/13 05:12:33;;;;;;;;;;;20.10;42.00;;;;;;5069672;28;19920;-58
2023/05/13 05:15:00;;;;;;;;;;;20.10;42.00;;;;;;5072193;28;19920;-58
2023/05/13 05:17:31;;;;;;;;;;;20.10;42.00;;;;;;5091472;28;19920;-58
2023/05/13 05:19:58;;;;;;;;;;;20.10;41.90;;;;;;5072577;28;19963;-58
2023/05/13 05:22:26;;;;;;;;;;;20.10;42.00;;;;;;5071409;28;19927;-58
2023/05/13 05:24:53;;;;;;;;;;;20.10;42.00;;;;;;5072170;28;20309;-58
2023/05/13 05:27:20;;;;;;;;;;;20.10;42.00;;;;;;5073654;28;19935;-58
2023/05/13 05:29:47;;;;;;;;;;;20.10;42.00;;;;;;5088626;28;20366;-58
2023/05/13 05:32:13;;;;;;;;;;;20.10;42.00;;;;;;5072214;28;19927;-58
2023/05/13 05:34:40;;;;;;;;;;;20.10;42.00;;;;;;5086555;28;20327;-58
2023/05/13 05:37:07;;;;;;;;;;;20.10;42.00;;;;;;5074019;28;19920;-58
2023/05/13 05:39:35;;;;;;;;;;;20.10;42.00;;;;;;5071309;28;19984;-58
2023/05/13 05:42:02;;;;;;;;;;;20.10;42.00;;;;;;5065293;28;19973;-58
2023/05/13 05:44:28;;;;;;;;;;;20.10;42.00;;;;;;5068377;28;19997;-58
2023/05/13 05:46:55;;;;;;;;;;;20.10;42.00;;;;;;5087435;28;20335;-58
2023/05/13 05:49:22;;;;;;;;;;;20.10;42.00;;;;;;5087088;28;20230;-58
2023/05/13 05:51:50;;;;;;;;;;;20.10;42.00;;;;;;5089279;28;19920;-58
2023/05/13 05:54:17;;;;;;;;;;;20.10;42.00;;;;;;5090165;28;19943;-58
2023/05/13 05:56:46;;;;;;;;;;;20.10;42.10;;;;;;5068605;28;19924;-58
2023/05/13 05:59:13;;;;;;;;;;;20.10;42.10;;;;;;5086936;28;19978;-58
2023/05/13 06:01:39;;;;;;;;;;;20.10;42.10;;;;;;5088414;28;20008;-58
2023/05/13 06:04:06;;;;;;;;;;;20.10;42.10;;;;;;5071106;28;19930;-58
2023/05/13 06:06:33;;;;;;;;;;;20.10;42.00;;;;;;5089076;28;19920;-58
2023/05/13 06:09:00;;;;;;;;;;;20.10;42.10;;;;;;5088804;28;19920;-58
2023/05/13 06:11:27;;;;;;;;;;;20.10;42.70;;;;;;5088321;28;20013;-59
2023/05/13 06:13:56;;;;;;;;;;;20.10;42.00;;;;;;5089384;28;19981;-58
2023/05/13 06:16:23;;;;;;;;;;;20.10;42.10;;;;;;5069191;28;19928;-58
2023/05/13 06:18:49;;;;;;;;;;;20.10;42.00;;;;;;5087519;28;19928;-58
2023/05/13 06:21:16;;;;;;;;;;;20.10;42.10;;;;;;5070952;28;19924;-58
2023/05/13 06:23:43;;;;;;;;;;;20.10;42.10;;;;;;5088188;28;19929;-58
2023/05/13 06:26:10;;;;;;;;;;;20.10;42.10;;;;;;5088334;28;20013;-59
2023/05/13 06:28:36;;;;;;;;;;;20.10;42.10;;;;;;5091328;28;19924;-58
2023/05/13 06:31:05;;;;;;;;;;;20.10;42.10;;;;;;5069395;28;20070;-58
2023/05/13 06:33:32;;;;;;;;;;;20.10;42.10;;;;;;5070681;28;19932;-58
2023/05/13 06:35:59;;;;;;;;;;;20.10;42.10;;;;;;5072463;28;20369;-58
2023/05/13 06:38:26;;;;;;;;;;;20.10;42.10;;;;;;5071366;28;19929;-57
2023/05/13 06:40:53;;;;;;;;;;;20.10;42.10;;;;;;5069694;28;19928;-57
2023/05/13 06:43:19;;;;;;;;;;;20.10;42.10;;;;;;5087627;28;19920;-57
2023/05/13 06:45:47;;;;;;;;;;;20.10;42.10;;;;;;5086543;28;19920;-57
2023/05/13 06:48:16;;;;;;;;;;;20.10;42.10;;;;;;5070925;28;19986;-57
2023/05/13 06:50:42;;;;;;;;;;;20.10;42.10;;;;;;5086467;28;20019;-58
2023/05/13 06:53:10;;;;;;;;;;;20.10;42.10;;;;;;5087263;28;19920;-58
2023/05/13 06:55:40;;;;;;;;;;;20.10;42.10;;;;;;5071395;28;19920;-58
2023/05/13 06:58:07;;;;;;;;;;;20.10;42.10;;;;;;5089529;28;20349;-58
2023/05/13 07:00:36;;;;;;;;;;;20.10;42.20;;;;;;5089473;28;19924;-58
2023/05/13 07:03:03;;;;;;;;;;;20.10;42.10;;;;;;5090507;28;20002;-58
2023/05/13 07:05:31;;;;;;;;;;;20.10;42.10;;;;;;5086494;28;19923;-58
2023/05/13 07:07:58;;;;;;;;;;;20.10;42.20;;;;;;5093202;28;19920;-57
2023/05/13 07:10:25;;;;;;;;;;;20.10;42.20;;;;;;5090402;28;19932;-57
2023/05/13 07:12:52;;;;;;;;;;;20.10;42.20;;;;;;5072921;28;19920;-58
2023/05/13 07:15:18;;;;;;;;;;;20.10;42.10;;;;;;5091134;28;20310;-57
2023/05/13 07:17:45;;;;;;;;;;;20.10;42.10;;;;;;5090398;28;19924;-58
2023/05/13 07:20:12;;;;;;;;;;;20.10;42.10;;;;;;5074068;28;20507;-58
2023/05/13 07:22:40;;;;;;;;;;;20.10;42.20;;;;;;5073685;28;19920;-58
2023/05/13 07:25:07;;;;;;;;;;;20.10;42.10;;;;;;5073509;28;19969;-57
2023/05/13 07:27:34;;;;;;;;;;;20.00;42.10;;;;;;5072971;28;19970;-58
2023/05/13 07:30:01;;;;;;;;;;;20.10;42.20;;;;;;5073829;28;19932;-57
2023/05/13 07:32:28;;;;;;;;;;;20.10;42.20;;;;;;5090681;28;19920;-57
2023/05/13 07:34:55;;;;;;;;;;;20.10;42.20;;;;;;5072687;28;20068;-57
2023/05/13 07:37:22;;;;;;;;;;;20.10;42.20;;;;;;5067292;28;19928;-57
2023/05/13 07:39:50;;;;;;;;;;;20.10;42.20;;;;;;5071412;28;19931;-57
2023/05/13 07:42:18;;;;;;;;;;;20.10;42.20;;;;;;5088770;28;19933;-58
2023/05/13 07:44:44;;;;;;;;;;;20.10;42.20;;;;;;5091050;28;19919;-57
2023/05/13 07:47:11;;;;;;;;;;;20.10;42.20;;;;;;5094839;28;19920;-57
2023/05/13 07:49:38;;;;;;;;;;;20.10;42.20;;;;;;5090556;28;19943;-57
2023/05/13 07:52:05;;;;;;;;;;;20.10;42.20;;;;;;5091743;28;19923;-58
2023/05/13 07:54:32;;;;;;;;;;;20.10;42.20;;;;;;5088838;28;19929;-58
2023/05/13 07:57:00;;;;;;;;;;;20.10;42.20;;;;;;5095117;28;19965;-58
2023/05/13 07:59:27;;;;;;;;;;;20.10;42.20;;;;;;5093691;28;19999;-58
2023/05/13 08:01:53;;;;;;;;;;;20.10;42.20;;;;;;5089223;28;19920;-58
2023/05/13 08:04:20;;;;;;;;;;;20.00;42.10;;;;;;5068082;28;19978;-57
2023/05/13 08:06:47;;;;;;;;;;;20.10;42.80;;;;;;5071296;28;19928;-57
2023/05/13 08:09:14;;;;;;;;;;;20.10;42.20;;;;;;5088138;28;20534;-57
2023/05/13 08:11:41;;;;;;;;;;;20.10;42.20;;;;;;5083009;28;19920;-58
2023/05/13 08:14:09;;;;;;;;;;;20.00;42.20;;;;;;5087687;28;19985;-58
2023/05/13 08:16:36;;;;;;;;;;;20.10;42.20;;;;;;5077148;28;19984;-58
2023/05/13 08:19:03;;;;;;;;;;;20.10;42.20;;;;;;5101397;28;19920;-58
2023/05/13 08:21:30;;;;;;;;;;;20.10;42.20;;;;;;5068621;28;20011;-58
2023/05/13 08:23:57;;;;;;;;;;;20.10;42.20;;;;;;5101207;28;20012;-58
2023/05/13 08:26:24;;;;;;;;;;;20.10;42.20;;;;;;5089853;28;19932;-58
2023/05/13 08:28:50;;;;;;;;;;;20.10;42.20;;;;;;5091283;28;19924;-58
2023/05/13 08:31:18;;;;;;;;;;;20.10;42.20;;;;;;5073006;28;19920;-58
2023/05/13 08:33:47;;;;;;;;;;;20.10;42.30;;;;;;5054138;28;19924;-58
2023/05/13 08:36:14;;;;;;;;;;;20.10;42.20;;;;;;5073425;28;19924;-58
2023/05/13 08:38:42;;;;;;;;;;;20.10;42.20;;;;;;5072943;28;19946;-58
2023/05/13 08:41:09;;;;;;;;;;;20.10;42.20;;;;;;5070169;28;19926;-57
2023/05/13 08:43:36;;;;;;;;;;;20.10;42.20;;;;;;5090150;28;19932;-57
2023/05/13 08:46:03;;;;;;;;;;;20.10;42.20;;;;;;5093366;28;19920;-58
2023/05/13 08:48:32;;;;;;;;;;;20.10;42.20;;;;;;5073755;28;20015;-59
2023/05/13 08:50:59;;;;;;;;;;;20.20;42.30;;;;;;5091740;28;19920;-59
2023/05/13 08:53:26;;;;;;;;;;;20.20;42.20;;;;;;5074343;28;19927;-59
2023/05/13 08:55:53;;;;;;;;;;;20.10;42.20;;;;;;5073428;28;19920;-60
2023/05/13 08:58:20;;;;;;;;;;;20.20;42.20;;;;;;5075949;28;19920;-57
2023/05/13 09:00:47;;;;;;;;;;;20.20;42.20;;;;;;5092302;28;19935;-58
2023/05/13 09:03:13;;;;;;;;;;;20.20;42.20;;;;;;5076879;28;20294;-58
2023/05/13 09:05:42;;;;;;;;;;;20.20;42.20;;;;;;5086784;28;19966;-58
2023/05/13 09:08:09;;;;;;;;;;;20.20;42.20;;;;;;5065432;28;19920;-57
2023/05/13 09:10:36;;;;;;;;;;;20.20;42.10;;;;;;5080823;28;19924;-57
2023/05/13 09:13:03;;;;;;;;;;;20.20;42.10;;;;;;5075701;28;19923;-59
2023/05/13 09:15:30;;;;;;;;;;;20.20;42.10;;;;;;5098283;28;19919;-57
2023/05/13 09:17:58;;;;;;;;;;;20.20;42.10;;;;;;5068436;28;19927;-58
2023/05/13 09:20:25;;;;;;;;;;;20.20;42.00;;;;;;5083814;28;19927;-58
2023/05/13 09:22:55;;;;;;;;;;;20.20;42.00;;;;;;5082961;28;19920;-58
2023/05/13 09:25:24;;;;;;;;;;;20.20;41.80;;;;;;5074906;28;19960;-56
2023/05/13 09:27:51;;;;;;;;;;;20.20;41.60;;;;;;5074097;28;19924;-59
2023/05/13 09:30:18;;;;;;;;;;;20.20;41.50;;;;;;5069127;28;19934;-58
2023/05/13 09:32:45;;;;;;;;;;;20.20;41.30;;;;;;5072849;28;19960;-57
2023/05/13 09:35:15;;;;;;;;;;;20.20;41.30;;;;;;5087218;28;20362;-57
2023/05/13 09:37:42;;;;;;;;;;;20.20;41.20;;;;;;5089118;28;19932;-57
2023/05/13 09:40:15;;;;;;;;;;;20.20;41.20;;;;;;5085178;28;19928;-57
2023/05/13 09:42:42;;;;;;;;;;;20.20;41.20;;;;;;5095091;28;19920;-57
2023/05/13 09:45:19;;;;;;;;;;;20.20;41.20;;;;;;5090192;28;19931;-57
2023/05/13 09:47:50;;;;;;;;;;;20.20;41.20;;;;;;5089285;28;19920;-56
2023/05/13 09:50:17;;;;;;;;;;;20.20;41.20;;;;;;5075392;28;19931;-56
2023/05/13 09:52:45;;;;;;;;;;;20.20;41.00;;;;;;5089294;28;19927;-57
2023/05/13 09:55:13;;;;;;;;;;;20.20;40.90;;;;;;5054442;28;19921;-59
2023/05/13 09:57:40;;;;;;;;;;;20.20;40.70;;;;;;5088090;28;19924;-58
2023/05/13 10:00:08;;;;;;;;;;;20.20;40.40;;;;;;5068641;28;19920;-59
2023/05/13 10:02:34;;;;;;;;;;;20.20;40.30;;;;;;5086966;28;19924;-59
2023/05/13 10:05:01;;;;;;;;;;;20.20;40.20;;;;;;5087221;28;19920;-56
2023/05/13 10:07:28;;;;;;;;;;;20.20;40.20;;;;;;5076490;28;19924;-56
2023/05/13 10:09:57;;;;;;;;;;;20.10;40.00;;;;;;5074720;28;19942;-56
2023/05/13 10:12:25;;;;;;;;;;;20.10;40.00;;;;;;5069244;28;20304;-56
2023/05/13 10:14:53;;;;;;;;;;;20.10;40.00;;;;;;5087572;28;19931;-56
2023/05/13 10:17:20;;;;;;;;;;;20.10;40.00;;;;;;5081639;28;19920;-56
2023/05/13 10:19:48;;;;;;;;;;;20.10;40.10;;;;;;5091406;28;19924;-56
2023/05/13 10:22:15;;;;;;;;;;;20.10;40.10;;;;;;5086371;28;19981;-56
2023/05/13 10:24:42;;;;;;;;;;;20.10;40.00;;;;;;5067995;28;19983;-56
2023/05/13 10:27:09;;;;;;;;;;;20.10;39.80;;;;;;5068808;28;19920;-56
2023/05/13 10:29:37;;;;;;;;;;;20.10;39.70;;;;;;5086345;28;20010;-56
2023/05/13 10:32:04;;;;;;;;;;;20.10;39.70;;;;;;5074005;28;19924;-56
2023/05/13 10:34:31;;;;;;;;;;;20.10;39.80;;;;;;5088803;28;20316;-58
2023/05/13 10:37:02;;;;;;;;;;;20.10;39.80;;;;;;5092311;28;19924;-59
2023/05/13 10:39:40;;;;;;;;;;;20.10;39.70;;;;;;5091316;28;19924;-58
2023/05/13 10:42:24;;;;;;;;;;;20.10;39.50;;;;;;5091955;28;19931;-56
2023/05/13 10:44:53;;;;;;;;;;;20.10;39.20;;;;;;5095795;28;19924;-56
2023/05/13 10:47:20;;;;;;;;;;;20.10;39.00;;;;;;5070129;28;19920;-56
2023/05/13 10:49:49;;;;;;;;;;;20.20;39.00;;;;;;5091639;28;19966;-59
2023/05/13 10:52:16;;;;;;;;;;;20.10;39.00;;;;;;5072094;28;19940;-59
2023/05/13 10:54:43;;;;;;;;;;;20.10;39.00;;;;;;5073013;28;19939;-59
2023/05/13 10:57:10;;;;;;;;;;;20.20;39.20;;;;;;5093656;28;19920;-59
2023/05/13 10:59:37;;;;;;;;;;;20.10;39.10;;;;;;5091239;28;19930;-59
2023/05/13 11:02:19;;;;;;;;;;;20.10;39.10;;;;;;5091570;28;19935;-58
2023/05/13 11:04:57;;;;;;;;;;;20.10;39.00;;;;;;5087904;28;20011;-56
2023/05/13 11:07:24;;;;;;;;;;;20.10;39.00;;;;;;5087020;28;20193;-56
2023/05/13 11:09:50;;;;;;;;;;;20.10;39.60;;;;;;5091199;28;19926;-56
2023/05/13 11:12:17;;;;;;;;;;;20.20;39.20;;;;;;5091258;28;19924;-56
2023/05/13 11:14:44;;;;;;;;;;;20.20;39.20;;;;;;5071588;28;19975;-56
2023/05/13 11:17:11;;;;;;;;;;;20.20;39.20;;;;;;5092902;28;19920;-56
2023/05/13 11:19:45;;;;;;;;;;;20.20;39.20;;;;;;5089719;28;20377;-56
2023/05/13 11:22:13;;;;;;;;;;;20.20;39.20;;;;;;5088000;28;19950;-54
2023/05/13 11:24:40;;;;;;;;;;;20.20;39.20;;;;;;5089999;28;19924;-56
2023/05/13 11:27:12;;;;;;;;;;;20.20;39.30;;;;;;5092034;28;20310;-56
2023/05/13 11:29:40;;;;;;;;;;;20.20;39.20;;;;;;5066545;28;19970;-56
2023/05/13 11:32:07;;;;;;;;;;;20.20;39.10;;;;;;5093066;28;19980;-56
2023/05/13 11:34:34;;;;;;;;;;;20.20;38.90;;;;;;5092878;28;19964;-56
2023/05/13 11:37:09;;;;;;;;;;;20.20;38.90;;;;;;5096821;28;19927;-56
2023/05/13 11:39:36;;;;;;;;;;;20.20;38.70;;;;;;5089396;28;19920;-56
2023/05/13 11:42:05;;;;;;;;;;;20.20;38.30;;;;;;5088112;28;19988;-56
2023/05/13 11:44:31;;;;;;;;;;;20.20;38.00;;;;;;5085977;28;19920;-56
2023/05/13 11:46:58;;;;;;;;;;;20.20;37.30;;;;;;5091140;28;19920;-56
2023/05/13 11:49:38;;;;;;;;;;;20.20;37.20;;;;;;5087535;28;19973;-56
2023/05/13 11:52:06;;;;;;;;;;;20.20;37.00;;;;;;5086474;28;19926;-56
2023/05/13 11:54:34;;;;;;;;;;;20.20;36.60;;;;;;5077010;28;20014;-56
2023/05/13 11:57:01;;;;;;;;;;;20.20;36.10;;;;;;5073273;28;19966;-56
2023/05/13 11:59:28;;;;;;;;;;;20.20;35.80;;;;;;5073110;28;19989;-56
2023/05/13 12:01:58;;;;;;;;;;;20.20;35.40;;;;;;5091486;28;19920;-56
2023/05/13 12:04:27;;;;;;;;;;;20.20;35.80;;;;;;5070845;28;20410;-56
2023/05/13 12:06:53;;;;;;;;;;;20.20;35.60;;;;;;5088788;28;19932;-56
2023/05/13 12:09:21;;;;;;;;;;;20.20;35.70;;;;;;5090063;28;19920;-59
2023/05/13 12:11:50;;;;;;;;;;;20.20;35.50;;;;;;5074794;28;19927;-57
2023/05/13 12:14:17;;;;;;;;;;;20.20;35.50;;;;;;5087629;28;19947;-56
2023/05/13 12:16:43;;;;;;;;;;;20.20;35.80;;;;;;5071845;28;19928;-59
2023/05/13 12:19:10;;;;;;;;;;;20.20;35.30;;;;;;5071515;28;19920;-59
2023/05/13 12:21:37;;;;;;;;;;;20.20;35.30;;;;;;5087469;28;19920;-59
2023/05/13 12:24:16;;;;;;;;;;;20.20;35.10;;;;;;5090886;28;19931;-59
2023/05/13 12:26:42;;;;;;;;;;;20.20;35.00;;;;;;5087469;28;19965;-59
2023/05/13 12:29:10;;;;;;;;;;;20.20;35.00;;;;;;5088973;28;20021;-56
2023/05/13 12:31:38;;;;;;;;;;;20.20;35.20;;;;;;5086133;28;19927;-56
2023/05/13 12:34:05;;;;;;;;;;;20.30;34.90;;;;;;5088401;28;19961;-56
2023/05/13 12:36:34;;;;;;;;;;;20.30;35.10;;;;;;5089010;28;19920;-56
2023/05/13 12:39:01;;;;;;;;;;;20.30;34.90;;;;;;5070275;28;19920;-57
2023/05/13 12:41:28;;;;;;;;;;;20.30;34.90;;;;;;5091437;28;20390;-58
2023/05/13 12:43:56;;;;;;;;;;;20.30;34.50;;;;;;5089203;28;19924;-58
2023/05/13 12:46:25;;;;;;;;;;;20.30;34.60;;;;;;5088709;28;19928;-57
2023/05/13 12:48:55;;;;;;;;;;;20.30;34.70;;;;;;5088425;28;19947;-57
2023/05/13 12:51:22;;;;;;;;;;;20.30;34.60;;;;;;5080497;28;19986;-57
2023/05/13 12:53:48;;;;;;;;;;;20.30;34.60;;;;;;5091468;28;19936;-59
2023/05/13 12:56:15;;;;;;;;;;;20.30;34.30;;;;;;5088979;28;20207;-57
2023/05/13 12:58:42;;;;;;;;;;;20.30;34.30;;;;;;5073959;28;19920;-58
2023/05/13 13:01:09;;;;;;;;;;;20.30;34.80;;;;;;5073388;28;19931;-58
2023/05/13 13:03:37;;;;;;;;;;;20.30;35.10;;;;;;5086765;28;19924;-57
2023/05/13 13:06:04;;;;;;;;;;;20.30;35.20;;;;;;5073476;28;19920;-58
2023/05/13 13:08:31;;;;;;;;;;;20.30;35.50;;;;;;5074022;28;19920;-57
2023/05/13 13:10:58;;;;;;;;;;;20.30;35.60;;;;;;5091091;28;19927;-57
2023/05/13 13:13:25;;;;;;;;;;;20.40;35.90;;;;;;5091828;28;19932;-57
2023/05/13 13:15:52;;;;;;;;;;;20.40;36.00;;;;;;5092314;28;19928;-57
2023/05/13 13:18:19;;;;;;;;;;;20.30;36.10;;;;;;5075789;28;19924;-58
2023/05/13 13:20:48;;;;;;;;;;;20.40;36.20;;;;;;5091477;28;19924;-58
2023/05/13 13:23:15;;;;;;;;;;;20.40;36.30;;;;;;5087446;28;19920;-58
2023/05/13 13:25:42;;;;;;;;;;;20.40;36.40;;;;;;5087813;28;19932;-58
2023/05/13 13:28:08;;;;;;;;;;;20.40;36.40;;;;;;5071088;28;20333;-57
2023/05/13 13:30:35;;;;;;;;;;;20.40;36.50;;;;;;5087828;28;20304;-58
2023/05/13 13:33:02;;;;;;;;;;;20.40;36.50;;;;;;5071090;28;19935;-58
2023/05/13 13:35:29;;;;;;;;;;;20.40;36.30;;;;;;5082912;28;19924;-58
2023/05/13 13:37:57;;;;;;;;;;;20.40;36.30;;;;;;5070641;28;19993;-58
2023/05/13 13:40:24;;;;;;;;;;;20.40;36.20;;;;;;5071246;28;19919;-58
2023/05/13 13:42:51;;;;;;;;;;;20.40;36.30;;;;;;5088428;28;19959;-57
2023/05/13 13:45:22;;;;;;;;;;;20.40;36.30;;;;;;5069425;28;20304;-57
2023/05/13 13:47:49;;;;;;;;;;;20.40;36.10;;;;;;5070866;28;19966;-58
2023/05/13 13:50:16;;;;;;;;;;;20.40;36.20;;;;;;5072321;28;19973;-58
2023/05/13 13:52:43;;;;;;;;;;;20.50;36.30;;;;;;5089244;28;19942;-58
2023/05/13 13:55:13;;;;;;;;;;;20.40;36.30;;;;;;5070768;28;20052;-58
2023/05/13 13:57:39;;;;;;;;;;;20.50;36.40;;;;;;5087334;28;19924;-58
2023/05/13 14:00:07;;;;;;;;;;;20.50;36.50;;;;;;5085736;28;19939;-58
2023/05/13 14:02:34;;;;;;;;;;;20.40;36.50;;;;;;5082887;28;19956;-58
2023/05/13 14:05:00;;;;;;;;;;;20.50;36.60;;;;;;5088029;28;20134;-58
2023/05/13 14:07:27;;;;;;;;;;;20.50;36.40;;;;;;5063039;28;19946;-58
2023/05/13 14:09:54;;;;;;;;;;;20.50;36.60;;;;;;5080266;28;19920;-57
2023/05/13 14:12:23;;;;;;;;;;;20.50;36.70;;;;;;5071341;28;19920;-58
2023/05/13 14:14:49;;;;;;;;;;;20.50;36.70;;;;;;5072650;28;19928;-58
2023/05/13 14:17:16;;;;;;;;;;;20.50;36.70;;;;;;5081120;28;19920;-58